Time;durP1;ratioP1;P1;durP2;ratioP2;P2;SDS_P1;SDS_P2;PMS_P1;PMS_P2;Temp;Humidity;BMP_temperature;BMP_pressure;BME280_temperature;BME280_humidity;BME280_pressure;Samples;Min_cycle;Max_cycle;Signal;HPM_P1;HPM_P2
2021/07/04 00:01:03;;;;;;;12.73;5.30;;;;;;;;;;5083901;28;20040;-80
2021/07/04 00:03:29;;;;;;;12.55;5.63;;;;;;;;;;5084780;28;20104;-80
2021/07/04 00:05:54;;;;;;;13.48;6.60;;;;;;;;;;5082461;28;20060;-80
2021/07/04 00:08:23;;;;;;;11.48;5.47;;;;;;;;;;5083551;28;20070;-80
2021/07/04 00:10:53;;;;;;;10.63;6.13;;;;;;;;;;5082486;28;20049;-80
2021/07/04 00:13:20;;;;;;;6.90;6.00;;;;;;;;;;5083654;28;20504;-81
2021/07/04 00:15:46;;;;;;;16.95;6.00;;;;;;;;;;5083296;28;20112;-81
2021/07/04 00:18:18;;;;;;;10.65;6.95;;;;;;;;;;5082816;28;20070;-80
2021/07/04 00:20:44;;;;;;;11.93;5.95;;;;;;;;;;5082654;28;20036;-80
2021/07/04 00:23:10;;;;;;;9.50;5.93;;;;;;;;;;5083073;28;20108;-80
2021/07/04 00:25:35;;;;;;;9.65;5.75;;;;;;;;;;5082041;28;20501;-80
2021/07/04 00:28:02;;;;;;;12.63;5.57;;;;;;;;;;5082201;28;20115;-80
2021/07/04 00:30:28;;;;;;;10.32;5.90;;;;;;;;;;5081385;28;20047;-80
2021/07/04 00:32:53;;;;;;;10.77;6.03;;;;;;;;;;5082274;28;20119;-80
2021/07/04 00:35:21;;;;;;;15.63;5.88;;;;;;;;;;5082435;28;20092;-80
2021/07/04 00:37:48;;;;;;;16.73;5.65;;;;;;;;;;5080397;28;20037;-80
2021/07/04 00:40:14;;;;;;;16.92;5.90;;;;;;;;;;5082385;28;20044;-80
2021/07/04 00:42:40;;;;;;;13.32;5.82;;;;;;;;;;5080064;28;20035;-80
2021/07/04 00:45:22;;;;;;;9.70;6.13;;;;;;;;;;5080445;28;20032;-80
2021/07/04 00:47:49;;;;;;;14.65;7.00;;;;;;;;;;5081877;28;20043;-80
2021/07/04 00:50:19;;;;;;;10.70;6.43;;;;;;;;;;5081701;28;20402;-80
2021/07/04 00:52:45;;;;;;;9.23;6.50;;;;;;;;;;5079516;28;20085;-80
2021/07/04 00:55:15;;;;;;;11.15;5.85;;;;;;;;;;5078743;28;20126;-80
2021/07/04 00:57:44;;;;;;;9.77;6.15;;;;;;;;;;5077945;28;20028;-80
2021/07/04 01:00:13;;;;;;;12.80;6.35;;;;;;;;;;5078147;28;20028;-80
2021/07/04 01:02:40;;;;;;;10.55;6.05;;;;;;;;;;5080197;28;20099;-80
2021/07/04 01:05:09;;;;;;;6.75;5.95;;;;;;;;;;5079798;28;20489;-80
2021/07/04 01:07:39;;;;;;;7.90;6.55;;;;;;;;;;5079566;28;20092;-80
2021/07/04 01:10:08;;;;;;;12.85;5.97;;;;;;;;;;5077381;28;20033;-80
2021/07/04 01:12:35;;;;;;;12.40;7.85;;;;;;;;;;5061143;28;20031;-80
2021/07/04 01:15:06;;;;;;;12.77;6.82;;;;;;;;;;5078925;28;20040;-80
2021/07/04 01:17:33;;;;;;;14.63;6.78;;;;;;;;;;5077295;28;20033;-80
2021/07/04 01:20:00;;;;;;;11.57;7.07;;;;;;;;;;5077110;28;20111;-80
2021/07/04 01:22:33;;;;;;;16.35;6.90;;;;;;;;;;5077590;28;20500;-80
2021/07/04 01:25:00;;;;;;;16.52;7.13;;;;;;;;;;5077381;28;20024;-80
2021/07/04 01:27:26;;;;;;;10.35;6.55;;;;;;;;;;5075781;28;20029;-80
2021/07/04 01:29:52;;;;;;;16.58;6.88;;;;;;;;;;5070258;28;20047;-79
2021/07/04 01:32:18;;;;;;;18.13;7.00;;;;;;;;;;5057252;28;20029;-79
2021/07/04 01:34:43;;;;;;;14.88;6.65;;;;;;;;;;5056831;28;20036;-79
2021/07/04 01:37:09;;;;;;;25.63;7.18;;;;;;;;;;5056011;28;20033;-79
2021/07/04 01:39:34;;;;;;;10.25;6.20;;;;;;;;;;5058550;28;20082;-79
2021/07/04 01:42:03;;;;;;;11.82;5.78;;;;;;;;;;5060605;28;20029;-79
2021/07/04 01:44:29;;;;;;;10.63;7.35;;;;;;;;;;5041665;28;20064;-79
2021/07/04 01:46:55;;;;;;;16.17;6.60;;;;;;;;;;5058842;28;20067;-79
2021/07/04 01:49:25;;;;;;;13.23;6.93;;;;;;;;;;5076061;28;20057;-79
2021/07/04 01:51:53;;;;;;;10.65;6.60;;;;;;;;;;5060203;28;20064;-79
2021/07/04 01:54:26;;;;;;;11.30;6.68;;;;;;;;;;5064240;28;20494;-79
2021/07/04 01:56:52;;;;;;;32.80;7.65;;;;;;;;;;5080268;28;20038;-79
2021/07/04 01:59:17;;;;;;;18.08;6.40;;;;;;;;;;5080808;28;20032;-79
2021/07/04 02:01:50;;;;;;;15.75;6.65;;;;;;;;;;5080010;28;20032;-79
2021/07/04 02:04:17;;;;;;;25.98;6.88;;;;;;;;;;5077876;28;20029;-79
2021/07/04 02:06:49;;;;;;;14.50;6.57;;;;;;;;;;5078176;28;20116;-79
2021/07/04 02:09:16;;;;;;;8.07;5.95;;;;;;;;;;5077266;28;20036;-79
2021/07/04 02:11:45;;;;;;;14.45;6.82;;;;;;;;;;5078850;28;20093;-79
2021/07/04 02:14:10;;;;;;;11.02;6.43;;;;;;;;;;5078626;28;20383;-79
2021/07/04 02:16:43;;;;;;;18.80;6.32;;;;;;;;;;5076860;28;20036;-79
2021/07/04 02:19:22;;;;;;;14.30;6.43;;;;;;;;;;5062702;28;20032;-79
2021/07/04 02:22:09;;;;;;;19.70;6.97;;;;;;;;;;5070186;28;20116;-79
2021/07/04 02:24:55;;;;;;;12.32;7.57;;;;;;;;;;5058316;28;20068;-79
2021/07/04 02:27:32;;;;;;;12.50;7.43;;;;;;;;;;5073447;28;20449;-79
2021/07/04 02:30:05;;;;;;;11.05;7.32;;;;;;;;;;5072639;28;20096;-79
2021/07/04 02:32:34;;;;;;;20.52;7.88;;;;;;;;;;5057839;28;20037;-79
2021/07/04 02:35:03;;;;;;;11.90;7.35;;;;;;;;;;5073099;28;20060;-80
2021/07/04 02:37:28;;;;;;;16.05;6.97;;;;;;;;;;5057588;28;20029;-80
2021/07/04 02:40:05;;;;;;;11.57;7.78;;;;;;;;;;5072595;28;20041;-79
2021/07/04 02:42:30;;;;;;;19.55;7.70;;;;;;;;;;5057227;28;20116;-79
2021/07/04 02:44:58;;;;;;;24.30;7.75;;;;;;;;;;5055837;28;20056;-80
2021/07/04 02:47:26;;;;;;;8.48;6.60;;;;;;;;;;5071845;28;20119;-80
2021/07/04 02:49:55;;;;;;;16.65;8.00;;;;;;;;;;5057894;28;20486;-80
2021/07/04 02:52:21;;;;;;;10.85;7.32;;;;;;;;;;5091535;28;20060;-80
2021/07/04 02:54:46;;;;;;;13.38;7.45;;;;;;;;;;5078896;28;20107;-80
2021/07/04 02:57:18;;;;;;;8.00;6.60;;;;;;;;;;5078801;28;20037;-80
2021/07/04 02:59:44;;;;;;;13.13;7.03;;;;;;;;;;5078936;28;20032;-80
2021/07/04 03:02:11;;;;;;;12.55;7.20;;;;;;;;;;5079155;28;20032;-80
2021/07/04 03:04:42;;;;;;;18.13;7.10;;;;;;;;;;5078438;28;20025;-80
2021/07/04 03:07:08;;;;;;;15.55;6.32;;;;;;;;;;5079505;28;20528;-80
2021/07/04 03:09:37;;;;;;;17.90;6.95;;;;;;;;;;5078442;28;20027;-80
2021/07/04 03:12:04;;;;;;;9.20;6.32;;;;;;;;;;5078278;28;20032;-80
2021/07/04 03:14:32;;;;;;;11.18;7.22;;;;;;;;;;5078631;28;20032;-80
2021/07/04 03:16:58;;;;;;;16.02;7.30;;;;;;;;;;5078916;28;20090;-80
2021/07/04 03:19:26;;;;;;;18.13;7.35;;;;;;;;;;5078357;28;20382;-80
2021/07/04 03:21:52;;;;;;;12.60;7.20;;;;;;;;;;5078970;28;20060;-80
2021/07/04 03:24:18;;;;;;;17.50;7.38;;;;;;;;;;5077487;28;20025;-80
2021/07/04 03:26:44;;;;;;;18.80;8.02;;;;;;;;;;5076629;28;20590;-80
2021/07/04 03:29:10;;;;;;;10.43;7.40;;;;;;;;;;5077285;28;20086;-80
2021/07/04 03:31:41;;;;;;;11.73;7.00;;;;;;;;;;5077038;28;20108;-80
2021/07/04 03:34:07;;;;;;;9.55;6.45;;;;;;;;;;5076260;28;20469;-80
2021/07/04 03:36:34;;;;;;;10.15;6.97;;;;;;;;;;5076024;28;20086;-80
2021/07/04 03:39:03;;;;;;;14.00;6.68;;;;;;;;;;5075905;28;20043;-80
2021/07/04 03:41:29;;;;;;;8.63;6.68;;;;;;;;;;5075126;28;20039;-80
2021/07/04 03:43:59;;;;;;;8.77;6.82;;;;;;;;;;5077053;28;20467;-80
2021/07/04 03:46:26;;;;;;;13.85;6.57;;;;;;;;;;5059258;28;20131;-80
2021/07/04 03:48:52;;;;;;;11.00;7.32;;;;;;;;;;5077927;28;20037;-80
2021/07/04 03:51:23;;;;;;;14.02;7.90;;;;;;;;;;5075575;28;20037;-80
2021/07/04 03:53:49;;;;;;;10.82;7.60;;;;;;;;;;5077814;28;20096;-80
2021/07/04 03:56:17;;;;;;;14.77;7.45;;;;;;;;;;5078181;28;20033;-80
2021/07/04 03:58:43;;;;;;;8.55;6.70;;;;;;;;;;5081585;28;20035;-80
2021/07/04 04:01:17;;;;;;;11.35;7.78;;;;;;;;;;5082044;28;20039;-80
2021/07/04 04:03:43;;;;;;;10.77;6.75;;;;;;;;;;5064116;28;20482;-80
2021/07/04 04:06:09;;;;;;;13.68;6.93;;;;;;;;;;5081306;28;20031;-80
2021/07/04 04:08:43;;;;;;;13.20;6.63;;;;;;;;;;5079753;28;20036;-80
2021/07/04 04:11:12;;;;;;;19.50;6.93;;;;;;;;;;5079240;28;20036;-80
2021/07/04 04:13:44;;;;;;;11.70;6.93;;;;;;;;;;5081007;28;20036;-80
2021/07/04 04:16:15;;;;;;;12.27;7.15;;;;;;;;;;5079050;28;20033;-80
2021/07/04 04:18:43;;;;;;;9.25;6.35;;;;;;;;;;5078751;28;20029;-80
2021/07/04 04:21:11;;;;;;;9.80;6.07;;;;;;;;;;5080158;28;20035;-80
2021/07/04 04:23:38;;;;;;;17.70;7.20;;;;;;;;;;5079031;28;20029;-80
2021/07/04 04:26:06;;;;;;;11.25;7.38;;;;;;;;;;5081679;28;20035;-80
2021/07/04 04:28:32;;;;;;;13.07;7.20;;;;;;;;;;5081114;28;20478;-80
2021/07/04 04:30:58;;;;;;;17.80;7.00;;;;;;;;;;5082446;28;20063;-80
2021/07/04 04:33:24;;;;;;;12.65;6.63;;;;;;;;;;5080568;28;20040;-80
2021/07/04 04:35:50;;;;;;;21.20;8.60;;;;;;;;;;5081416;28;20031;-80
2021/07/04 04:38:16;;;;;;;11.18;6.72;;;;;;;;;;5082346;28;20112;-80
2021/07/04 04:40:42;;;;;;;11.77;6.85;;;;;;;;;;5080583;28;20048;-81
2021/07/04 04:43:07;;;;;;;15.95;6.72;;;;;;;;;;5081570;28;20044;-80
2021/07/04 04:45:33;;;;;;;9.90;6.25;;;;;;;;;;5082543;28;20071;-80
2021/07/04 04:47:59;;;;;;;13.85;6.38;;;;;;;;;;5082019;28;20063;-80
2021/07/04 04:50:25;;;;;;;12.13;6.20;;;;;;;;;;5082235;28;20424;-79
2021/07/04 04:52:51;;;;;;;12.60;7.25;;;;;;;;;;5081738;28;20131;-80
2021/07/04 04:55:16;;;;;;;13.88;6.25;;;;;;;;;;5079805;28;20123;-80
2021/07/04 04:57:41;;;;;;;11.50;6.20;;;;;;;;;;5080441;28;20119;-80
2021/07/04 05:00:11;;;;;;;12.52;6.55;;;;;;;;;;5080342;28;20036;-79
2021/07/04 05:02:36;;;;;;;18.52;6.53;;;;;;;;;;5081048;28;20036;-79
2021/07/04 05:05:03;;;;;;;27.23;6.97;;;;;;;;;;5079033;28;20036;-79
2021/07/04 05:07:29;;;;;;;12.82;6.50;;;;;;;;;;5080102;28;20028;-79
2021/07/04 05:09:54;;;;;;;12.25;6.25;;;;;;;;;;5080607;28;21569;-79
2021/07/04 05:12:19;;;;;;;10.77;6.45;;;;;;;;;;5080380;28;20021;-79
2021/07/04 05:14:45;;;;;;;9.05;6.15;;;;;;;;;;5079890;28;20089;-79
2021/07/04 05:17:10;;;;;;;7.90;5.95;;;;;;;;;;5079795;28;20044;-79
2021/07/04 05:19:35;;;;;;;12.65;5.57;;;;;;;;;;5080755;28;20044;-79
2021/07/04 05:22:01;;;;;;;10.98;5.53;;;;;;;;;;5078144;28;20041;-79
2021/07/04 05:24:28;;;;;;;6.57;5.35;;;;;;;;;;5078569;28;20066;-79
2021/07/04 05:26:54;;;;;;;8.77;5.60;;;;;;;;;;5079585;28;20036;-79
2021/07/04 05:29:19;;;;;;;7.20;5.32;;;;;;;;;;5079486;28;20123;-79
2021/07/04 05:31:45;;;;;;;7.32;5.03;;;;;;;;;;5079647;28;20045;-80
2021/07/04 05:34:10;;;;;;;8.10;5.47;;;;;;;;;;5079318;28;20036;-79
2021/07/04 05:36:35;;;;;;;9.05;5.90;;;;;;;;;;5077804;28;20062;-80
2021/07/04 05:39:01;;;;;;;6.75;5.82;;;;;;;;;;5061350;28;20542;-79
2021/07/04 05:41:26;;;;;;;15.50;6.30;;;;;;;;;;5079046;28;20043;-79
2021/07/04 05:43:52;;;;;;;12.63;7.30;;;;;;;;;;5078329;28;20047;-80
2021/07/04 05:46:17;;;;;;;21.80;8.93;;;;;;;;;;5078245;28;20045;-79
2021/07/04 05:48:45;;;;;;;10.38;6.55;;;;;;;;;;5077041;28;20064;-79
2021/07/04 05:51:11;;;;;;;10.68;7.60;;;;;;;;;;5079138;28;20036;-79
2021/07/04 05:53:37;;;;;;;9.55;7.25;;;;;;;;;;5077347;28;20048;-79
2021/07/04 05:56:02;;;;;;;8.30;7.47;;;;;;;;;;5079061;28;20402;-79
2021/07/04 05:58:28;;;;;;;9.05;6.82;;;;;;;;;;5077754;28;20056;-79
2021/07/04 06:00:53;;;;;;;11.18;7.63;;;;;;;;;;5079494;28;20044;-79
2021/07/04 06:03:19;;;;;;;10.55;5.50;;;;;;;;;;5079480;28;20033;-79
2021/07/04 06:05:44;;;;;;;16.30;7.13;;;;;;;;;;5078872;28;20558;-79
2021/07/04 06:08:10;;;;;;;9.45;6.85;;;;;;;;;;5078849;28;20032;-79
2021/07/04 06:10:36;;;;;;;14.27;7.68;;;;;;;;;;5079209;28;20032;-79
2021/07/04 06:13:02;;;;;;;11.40;6.88;;;;;;;;;;5077958;28;20470;-79
2021/07/04 06:15:28;;;;;;;9.20;6.00;;;;;;;;;;5079490;28;20515;-79
2021/07/04 06:17:54;;;;;;;10.00;6.72;;;;;;;;;;5078468;28;20066;-80
2021/07/04 06:20:20;;;;;;;13.32;6.28;;;;;;;;;;5080793;28;20153;-79
2021/07/04 06:22:47;;;;;;;8.63;6.13;;;;;;;;;;5079412;28;20037;-79
2021/07/04 06:25:13;;;;;;;12.80;6.43;;;;;;;;;;5080963;28;20114;-79
2021/07/04 06:27:40;;;;;;;11.48;6.75;;;;;;;;;;5080759;28;20111;-79
2021/07/04 06:30:08;;;;;;;10.88;5.72;;;;;;;;;;5081407;28;20100;-79
2021/07/04 06:32:34;;;;;;;12.02;6.05;;;;;;;;;;5080679;28;20048;-78
2021/07/04 06:35:00;;;;;;;14.05;5.65;;;;;;;;;;5080205;28;20389;-80
2021/07/04 06:37:26;;;;;;;8.68;5.07;;;;;;;;;;5078532;28;20119;-80
2021/07/04 06:39:52;;;;;;;11.75;4.53;;;;;;;;;;5079595;28;20045;-80
2021/07/04 06:42:17;;;;;;;11.98;4.53;;;;;;;;;;5078648;28;20137;-80
2021/07/04 06:44:42;;;;;;;6.05;4.28;;;;;;;;;;5076770;28;20068;-79
2021/07/04 06:47:08;;;;;;;9.35;4.65;;;;;;;;;;5076287;28;20037;-80
2021/07/04 06:49:33;;;;;;;8.90;4.25;;;;;;;;;;5076386;28;20033;-79
2021/07/04 06:51:59;;;;;;;6.85;4.32;;;;;;;;;;5069800;28;20494;-79
2021/07/04 06:54:24;;;;;;;12.13;3.83;;;;;;;;;;5071698;28;20148;-79
2021/07/04 06:56:49;;;;;;;8.38;4.13;;;;;;;;;;5055664;28;20043;-79
2021/07/04 06:59:15;;;;;;;7.90;4.50;;;;;;;;;;5056070;28;20083;-79
2021/07/04 07:01:41;;;;;;;6.43;4.53;;;;;;;;;;5061805;28;20041;-80
2021/07/04 07:04:06;;;;;;;9.98;4.35;;;;;;;;;;5066169;28;20040;-79
2021/07/04 07:06:32;;;;;;;5.28;4.65;;;;;;;;;;5066359;28;20055;-79
2021/07/04 07:08:58;;;;;;;9.35;5.20;;;;;;;;;;5062677;28;20040;-81
2021/07/04 07:11:23;;;;;;;7.93;4.45;;;;;;;;;;5076562;28;20033;-78
2021/07/04 07:13:49;;;;;;;7.88;4.45;;;;;;;;;;5065278;28;20029;-81
2021/07/04 07:16:25;;;;;;;8.05;4.45;;;;;;;;;;5067182;28;20133;-79
2021/07/04 07:18:55;;;;;;;7.63;4.40;;;;;;;;;;5067580;28;20043;-79
2021/07/04 07:21:20;;;;;;;8.75;4.28;;;;;;;;;;5068433;28;20036;-79
2021/07/04 07:23:46;;;;;;;5.30;4.50;;;;;;;;;;5068539;28;20041;-79
2021/07/04 07:26:12;;;;;;;10.27;4.80;;;;;;;;;;5086860;28;20093;-79
2021/07/04 07:28:37;;;;;;;8.20;4.70;;;;;;;;;;5088449;28;20036;-79
2021/07/04 07:31:10;;;;;;;6.53;4.07;;;;;;;;;;5091897;28;20037;-79
2021/07/04 07:33:36;;;;;;;7.60;4.15;;;;;;;;;;5092034;28;20042;-79
2021/07/04 07:36:02;;;;;;;6.78;4.82;;;;;;;;;;5075295;28;20044;-79
2021/07/04 07:38:28;;;;;;;10.55;6.30;;;;;;;;;;5092517;28;20044;-79
2021/07/04 07:40:53;;;;;;;6.25;5.18;;;;;;;;;;5089992;28;20044;-79
2021/07/04 07:43:18;;;;;;;8.88;5.18;;;;;;;;;;5071324;28;20036;-81
2021/07/04 07:45:46;;;;;;;6.82;4.50;;;;;;;;;;5083128;28;20043;-81
2021/07/04 07:48:13;;;;;;;7.18;5.13;;;;;;;;;;5081917;28;20105;-80
2021/07/04 07:50:49;;;;;;;10.27;4.57;;;;;;;;;;5080400;28;20029;-81
2021/07/04 07:53:15;;;;;;;5.97;4.15;;;;;;;;;;5083170;28;20036;-80
2021/07/04 07:55:41;;;;;;;4.97;3.88;;;;;;;;;;5063059;28;20040;-80
2021/07/04 07:58:06;;;;;;;7.70;4.47;;;;;;;;;;5079171;28;20035;-81
2021/07/04 08:00:32;;;;;;;8.07;4.47;;;;;;;;;;5080028;28;20039;-81
2021/07/04 08:02:58;;;;;;;10.30;4.50;;;;;;;;;;5078971;28;20486;-81
2021/07/04 08:05:24;;;;;;;6.32;4.07;;;;;;;;;;5062603;28;20035;-81
2021/07/04 08:07:50;;;;;;;7.53;4.82;;;;;;;;;;5079698;28;20025;-81
2021/07/04 08:10:19;;;;;;;10.48;5.65;;;;;;;;;;5061150;28;20078;-80
2021/07/04 08:12:44;;;;;;;4.93;3.90;;;;;;;;;;5077378;28;20469;-81
2021/07/04 08:15:11;;;;;;;7.80;4.57;;;;;;;;;;5078114;28;20043;-80
2021/07/04 08:17:36;;;;;;;4.78;4.13;;;;;;;;;;5079019;28;20056;-80
2021/07/04 08:20:04;;;;;;;4.93;3.67;;;;;;;;;;5079508;28;20383;-80
2021/07/04 08:22:29;;;;;;;5.35;4.18;;;;;;;;;;5079861;28;20436;-80
2021/07/04 08:24:55;;;;;;;10.52;4.07;;;;;;;;;;5078143;28;20036;-80
2021/07/04 08:27:20;;;;;;;5.25;3.83;;;;;;;;;;5078503;28;20067;-81
2021/07/04 08:29:48;;;;;;;8.30;4.28;;;;;;;;;;5087452;28;20043;-81
2021/07/04 08:32:14;;;;;;;7.90;4.28;;;;;;;;;;5089546;28;20032;-81
2021/07/04 08:34:39;;;;;;;6.75;3.92;;;;;;;;;;5090316;28;20032;-82
2021/07/04 08:37:05;;;;;;;6.07;3.53;;;;;;;;;;5089747;28;20041;-79
2021/07/04 08:39:31;;;;;;;6.72;3.80;;;;;;;;;;5087434;28;20041;-78
2021/07/04 08:41:57;;;;;;;4.97;3.33;;;;;;;;;;5085703;28;20474;-83
2021/07/04 08:44:23;;;;;;;3.70;3.30;;;;;;;;;;5086918;28;20130;-82
2021/07/04 08:46:48;;;;;;;4.85;3.50;;;;;;;;;;5091093;28;20057;-82
2021/07/04 08:49:14;;;;;;;5.43;3.17;;;;;;;;;;5092719;28;20075;-81
2021/07/04 08:51:40;;;;;;;4.80;3.65;;;;;;;;;;5084768;28;20016;-85
2021/07/04 08:54:05;;;;;;;6.70;3.20;;;;;;;;;;5060785;28;20041;-85
2021/07/04 08:56:31;;;;;;;5.78;3.58;;;;;;;;;;5074720;28;20037;-85
2021/07/04 08:58:57;;;;;;;10.48;4.70;;;;;;;;;;5066498;28;20057;-84
2021/07/04 09:01:25;;;;;;;6.82;3.20;;;;;;;;;;5059795;28;20037;-88
2021/07/04 09:04:12;;;;;;;5.45;3.00;;;;;;;;;;5054971;28;20037;-86
2021/07/04 09:06:43;;;;;;;7.60;3.35;;;;;;;;;;5081258;28;20063;-82
2021/07/04 09:09:29;;;;;;;8.07;3.53;;;;;;;;;;5063247;28;20051;-82
2021/07/04 09:12:03;;;;;;;5.15;3.40;;;;;;;;;;5079972;28;20036;-85
2021/07/04 09:14:33;;;;;;;8.20;3.75;;;;;;;;;;5083548;28;20052;-84
2021/07/04 09:16:59;;;;;;;4.82;3.30;;;;;;;;;;5082808;28;20151;-84
2021/07/04 09:19:25;;;;;;;4.95;3.55;;;;;;;;;;5083607;28;20483;-84
2021/07/04 09:22:01;;;;;;;6.88;3.65;;;;;;;;;;5082256;28;20055;-82
2021/07/04 09:24:29;;;;;;;8.13;3.53;;;;;;;;;;5082884;28;20033;-84
2021/07/04 09:26:55;;;;;;;5.45;3.50;;;;;;;;;;5082188;28;20044;-84
2021/07/04 09:29:52;;;;;;;8.05;3.80;;;;;;;;;;5087308;28;20055;-84
2021/07/04 09:32:19;;;;;;;9.02;3.72;;;;;;;;;;5088296;28;20025;-83
2021/07/04 09:34:57;;;;;;;6.28;4.07;;;;;;;;;;5087755;28;20056;-82
2021/07/04 09:37:28;;;;;;;8.50;3.63;;;;;;;;;;5089709;28;20036;-83
2021/07/04 09:40:13;;;;;;;5.75;3.30;;;;;;;;;;5086700;28;20036;-83
2021/07/04 09:43:06;;;;;;;4.82;3.53;;;;;;;;;;5086401;28;20032;-82
2021/07/04 09:45:50;;;;;;;6.45;3.95;;;;;;;;;;5082674;28;20509;-83
2021/07/04 09:48:17;;;;;;;5.03;4.03;;;;;;;;;;5085691;28;20055;-83
2021/07/04 09:50:46;;;;;;;5.05;3.28;;;;;;;;;;5086341;28;20043;-82
2021/07/04 09:53:11;;;;;;;8.95;3.75;;;;;;;;;;5082281;28;20036;-84
2021/07/04 09:55:37;;;;;;;3.88;3.53;;;;;;;;;;5083316;28;20040;-82
2021/07/04 09:58:08;;;;;;;5.65;3.65;;;;;;;;;;5089186;28;20033;-82
2021/07/04 10:00:36;;;;;;;5.55;3.40;;;;;;;;;;5087216;28;20096;-83
2021/07/04 10:03:22;;;;;;;4.50;3.50;;;;;;;;;;5085362;28;20032;-81
2021/07/04 10:05:50;;;;;;;11.00;3.80;;;;;;;;;;5085007;28;20048;-85
2021/07/04 10:08:18;;;;;;;4.55;3.42;;;;;;;;;;5068583;28;20036;-86
2021/07/04 10:10:43;;;;;;;4.78;3.47;;;;;;;;;;5088091;28;20386;-85
2021/07/04 10:13:09;;;;;;;4.63;3.45;;;;;;;;;;5085834;28;20044;-85
2021/07/04 10:15:35;;;;;;;6.05;3.70;;;;;;;;;;5085815;28;20039;-86
2021/07/04 10:18:01;;;;;;;6.45;3.45;;;;;;;;;;5101848;28;20044;-83
2021/07/04 10:20:28;;;;;;;4.60;3.13;;;;;;;;;;5079377;28;20036;-85
2021/07/04 10:22:54;;;;;;;10.00;3.60;;;;;;;;;;5089354;28;20027;-85
2021/07/04 10:25:20;;;;;;;14.35;10.20;;;;;;;;;;5085470;28;20054;-86
2021/07/04 10:27:48;;;;;;;5.03;3.90;;;;;;;;;;5074187;28;20040;-86
2021/07/04 10:30:14;;;;;;;4.53;3.70;;;;;;;;;;5091011;28;20044;-85
2021/07/04 10:33:19;;;;;;;6.15;3.80;;;;;;;;;;5075611;28;20059;-86
2021/07/04 10:36:10;;;;;;;4.40;3.72;;;;;;;;;;5073995;28;20176;-87
2021/07/04 10:38:57;;;;;;;4.55;3.40;;;;;;;;;;5061698;28;20108;-86
2021/07/04 10:41:52;;;;;;;4.18;3.50;;;;;;;;;;5058196;28;20037;-86
2021/07/04 10:44:17;;;;;;;7.10;3.60;;;;;;;;;;5073957;28;20040;-86
2021/07/04 10:46:43;;;;;;;6.70;4.07;;;;;;;;;;5075108;28;20398;-86
2021/07/04 10:49:11;;;;;;;4.68;3.60;;;;;;;;;;5073365;28;20121;-87
2021/07/04 10:51:57;;;;;;;7.13;3.85;;;;;;;;;;5072616;28;20032;-85
2021/07/04 10:54:47;;;;;;;5.30;3.92;;;;;;;;;;5057548;28;20457;-85
2021/07/04 10:57:34;;;;;;;8.50;3.67;;;;;;;;;;5072356;28;20051;-85
2021/07/04 11:00:05;;;;;;;5.68;4.07;;;;;;;;;;5093717;28;20040;-84
2021/07/04 11:02:53;;;;;;;5.47;3.97;;;;;;;;;;5098072;28;20032;-84
2021/07/04 11:05:40;;;;;;;5.43;3.55;;;;;;;;;;5102007;28;20381;-84
2021/07/04 11:08:10;;;;;;;3.88;3.50;;;;;;;;;;5100239;28;20562;-84
2021/07/04 11:10:39;;;;;;;6.97;3.80;;;;;;;;;;5089945;28;20490;-84
2021/07/04 11:13:08;;;;;;;5.18;3.60;;;;;;;;;;5077806;28;20059;-85
2021/07/04 11:15:35;;;;;;;4.60;3.65;;;;;;;;;;5076570;28;20036;-85
2021/07/04 11:18:09;;;;;;;5.00;3.85;;;;;;;;;;5059800;28;20422;-84
2021/07/04 11:20:44;;;;;;;3.90;3.30;;;;;;;;;;5078897;28;20068;-84
2021/07/04 11:23:26;;;;;;;5.35;3.42;;;;;;;;;;5076729;28;20042;-85
2021/07/04 11:25:57;;;;;;;4.20;3.28;;;;;;;;;;5077351;28;20600;-85
2021/07/04 11:28:37;;;;;;;4.70;3.30;;;;;;;;;;5080711;28;20127;-84
2021/07/04 11:31:04;;;;;;;4.45;3.17;;;;;;;;;;5079528;28;20511;-84
2021/07/04 11:33:50;;;;;;;5.22;3.33;;;;;;;;;;5079886;28;20042;-84
2021/07/04 11:36:15;;;;;;;4.93;3.42;;;;;;;;;;5076302;28;20486;-84
2021/07/04 11:38:57;;;;;;;5.07;3.50;;;;;;;;;;5076440;28;20047;-86
2021/07/04 11:41:38;;;;;;;4.93;3.83;;;;;;;;;;5058253;28;20482;-87
2021/07/04 11:44:06;;;;;;;4.43;3.47;;;;;;;;;;5077562;28;20039;-82
2021/07/04 11:46:33;;;;;;;3.85;3.00;;;;;;;;;;5078980;28;20368;-80
2021/07/04 11:49:03;;;;;;;4.43;3.15;;;;;;;;;;5079571;28;20036;-80
2021/07/04 11:51:35;;;;;;;3.70;2.95;;;;;;;;;;5079141;28;20490;-79
2021/07/04 11:54:06;;;;;;;7.90;3.28;;;;;;;;;;5077972;28;20104;-80
2021/07/04 11:56:32;;;;;;;3.95;3.30;;;;;;;;;;5078080;28;20431;-79
2021/07/04 11:59:06;;;;;;;6.63;3.90;;;;;;;;;;5076161;28;20037;-79
2021/07/04 12:01:39;;;;;;;6.35;3.78;;;;;;;;;;5078708;28;20040;-79
2021/07/04 12:04:05;;;;;;;6.85;4.30;;;;;;;;;;5069899;28;20043;-79
2021/07/04 12:06:30;;;;;;;5.05;4.05;;;;;;;;;;5060369;28;20056;-80
2021/07/04 12:09:00;;;;;;;10.45;3.83;;;;;;;;;;5059571;28;20045;-80
2021/07/04 12:11:53;;;;;;;6.35;3.53;;;;;;;;;;5059278;28;20041;-80
2021/07/04 12:14:26;;;;;;;7.45;3.75;;;;;;;;;;5059063;28;20406;-80
2021/07/04 12:16:53;;;;;;;4.00;3.08;;;;;;;;;;5057613;28;20048;-79
2021/07/04 12:19:31;;;;;;;6.07;3.75;;;;;;;;;;5058814;28;20032;-80
2021/07/04 12:21:57;;;;;;;4.00;3.60;;;;;;;;;;5064838;28;20028;-80
2021/07/04 12:24:43;;;;;;;4.50;3.55;;;;;;;;;;5077242;28;20119;-80
2021/07/04 12:27:09;;;;;;;3.60;3.30;;;;;;;;;;5077386;28;20042;-78
2021/07/04 12:30:05;;;;;;;9.85;3.53;;;;;;;;;;5076246;28;20063;-78
2021/07/04 12:32:35;;;;;;;5.10;3.47;;;;;;;;;;5076080;28;20036;-78
2021/07/04 12:35:00;;;;;;;4.63;3.65;;;;;;;;;;5077432;28;20039;-78
2021/07/04 12:37:27;;;;;;;7.15;3.92;;;;;;;;;;5076860;28;20052;-78
2021/07/04 12:40:14;;;;;;;5.85;3.30;;;;;;;;;;5077581;28;20036;-78
2021/07/04 12:42:42;;;;;;;5.43;3.65;;;;;;;;;;5077648;28;20036;-78
2021/07/04 12:45:09;;;;;;;7.45;3.80;;;;;;;;;;5075863;28;20107;-78
2021/07/04 12:47:35;;;;;;;6.13;3.80;;;;;;;;;;5077190;28;20033;-78
2021/07/04 12:50:05;;;;;;;5.50;3.63;;;;;;;;;;5077308;28;20036;-78
2021/07/04 12:52:31;;;;;;;4.15;3.47;;;;;;;;;;5075768;28;20079;-78
2021/07/04 12:54:56;;;;;;;4.20;3.58;;;;;;;;;;5077478;28;20067;-78
2021/07/04 12:57:36;;;;;;;5.28;3.40;;;;;;;;;;5076962;28;20051;-78
2021/07/04 13:00:09;;;;;;;7.22;3.30;;;;;;;;;;5076457;28;20502;-78
2021/07/04 13:02:43;;;;;;;6.65;3.25;;;;;;;;;;5077118;28;20036;-78
2021/07/04 13:05:09;;;;;;;5.10;3.35;;;;;;;;;;5076089;28;20039;-78
2021/07/04 13:07:43;;;;;;;3.92;3.50;;;;;;;;;;5077138;28;20068;-78
2021/07/04 13:10:09;;;;;;;6.05;3.60;;;;;;;;;;5075622;28;20560;-78
2021/07/04 13:12:37;;;;;;;4.15;3.40;;;;;;;;;;5076694;28;20060;-78
2021/07/04 13:15:04;;;;;;;4.90;3.47;;;;;;;;;;5076668;28;20043;-78
2021/07/04 13:17:44;;;;;;;6.80;3.60;;;;;;;;;;5076782;28;20044;-78
2021/07/04 13:20:12;;;;;;;5.38;3.80;;;;;;;;;;5076735;28;20028;-78
2021/07/04 13:22:40;;;;;;;4.20;3.58;;;;;;;;;;5078942;28;20078;-78
2021/07/04 13:25:17;;;;;;;7.45;3.30;;;;;;;;;;5076773;28;20374;-78
2021/07/04 13:27:49;;;;;;;3.88;3.25;;;;;;;;;;5076210;28;20036;-78
2021/07/04 13:30:18;;;;;;;4.00;3.53;;;;;;;;;;5078039;28;20036;-78
2021/07/04 13:33:02;;;;;;;6.90;3.25;;;;;;;;;;5079032;28;20036;-78
2021/07/04 13:35:36;;;;;;;5.97;3.08;;;;;;;;;;5076255;28;20071;-78
2021/07/04 13:38:03;;;;;;;4.18;3.50;;;;;;;;;;5077083;28;20081;-78
2021/07/04 13:40:29;;;;;;;4.07;3.15;;;;;;;;;;5078948;28;20040;-78
2021/07/04 13:42:55;;;;;;;7.05;2.80;;;;;;;;;;5078547;28;20047;-79
2021/07/04 13:45:40;;;;;;;2.83;2.47;;;;;;;;;;5079060;28;20462;-78
2021/07/04 13:48:07;;;;;;;8.30;2.55;;;;;;;;;;5077947;28;20060;-78
2021/07/04 13:50:34;;;;;;;3.92;2.50;;;;;;;;;;5078157;28;20029;-78
2021/07/04 13:53:00;;;;;;;4.20;2.63;;;;;;;;;;5078166;28;20033;-78
2021/07/04 13:55:25;;;;;;;6.45;2.47;;;;;;;;;;5078661;28;20040;-78
2021/07/04 13:57:51;;;;;;;5.97;3.00;;;;;;;;;;5078444;28;20119;-78
2021/07/04 14:00:18;;;;;;;3.22;2.30;;;;;;;;;;5078161;28;20020;-78
2021/07/04 14:02:44;;;;;;;2.67;2.35;;;;;;;;;;5078092;28;20035;-78
2021/07/04 14:05:10;;;;;;;3.00;2.03;;;;;;;;;;5077240;28;20052;-78
2021/07/04 14:07:35;;;;;;;7.03;2.00;;;;;;;;;;5076587;28;20029;-78
2021/07/04 14:10:02;;;;;;;5.03;2.13;;;;;;;;;;5076600;28;20479;-78
2021/07/04 14:12:27;;;;;;;3.67;1.75;;;;;;;;;;5075599;28;20047;-78
2021/07/04 14:14:52;;;;;;;2.08;1.88;;;;;;;;;;5076305;28;20491;-78
2021/07/04 14:17:18;;;;;;;2.33;2.13;;;;;;;;;;5076100;28;20058;-78
2021/07/04 14:19:45;;;;;;;3.63;2.30;;;;;;;;;;5074861;28;20040;-78
2021/07/04 14:22:11;;;;;;;2.97;2.40;;;;;;;;;;5075951;28;20107;-78
2021/07/04 14:24:37;;;;;;;4.50;2.55;;;;;;;;;;5075920;28;20492;-78
2021/07/04 14:27:05;;;;;;;3.00;2.60;;;;;;;;;;5076074;28;20039;-78
2021/07/04 14:29:31;;;;;;;4.55;2.88;;;;;;;;;;5075504;28;20043;-78
2021/07/04 14:31:57;;;;;;;4.20;2.70;;;;;;;;;;5075829;28;20040;-78
2021/07/04 14:34:22;;;;;;;3.67;2.50;;;;;;;;;;5074396;28;20063;-77
2021/07/04 14:36:48;;;;;;;4.63;2.60;;;;;;;;;;5075397;28;20033;-78
2021/07/04 14:39:13;;;;;;;3.88;2.70;;;;;;;;;;5075205;28;20506;-77
2021/07/04 14:41:39;;;;;;;3.65;2.40;;;;;;;;;;5075224;28;20111;-78
2021/07/04 14:44:07;;;;;;;7.00;2.40;;;;;;;;;;5074639;28;20032;-78
2021/07/04 14:46:33;;;;;;;2.85;2.38;;;;;;;;;;5074679;28;20056;-78
2021/07/04 14:48:59;;;;;;;3.10;2.35;;;;;;;;;;5074997;28;20033;-78